METAR AND TAF INFORMATION
METAR FOR EFRO
ADDS - METARS form results

(0601 UTC 03 February 2023)
Data provider http://aviationweather.gov/metar/data/
 
METAR text: EFRO 030550Z 35009KT CAVOK M15/M16 Q1012
Conditions at: EFRO (ROVANIEMI (CIV/M, FI) observed 0550 UTC 03 February 2023
Temperature: -15.0°C ( 5°F)
Dewpoint: -16.0°C ( 3°F) [RH = 92%]
Pressure (altimeter): 29.88 inches Hg (1012.0 mb)
Winds: from the N (350 degrees) at 10 MPH (9 knots; 4.6 m/s)
Visibility: 6 or more miles (10+ km)
Ceiling: ceiling and visibility are OK
Clouds: unknown
Weather: no significant weather observed at this time

METAR text: EFRO 030520Z 01008KT CAVOK M14/M16 Q1012
Conditions at: EFRO (ROVANIEMI (CIV/M, FI) observed 0520 UTC 03 February 2023
Temperature: -14.0°C ( 7°F)
Dewpoint: -16.0°C ( 3°F) [RH = 85%]
Pressure (altimeter): 29.88 inches Hg (1012.0 mb)
Winds: from the N (10 degrees) at 9 MPH (8 knots; 4.1 m/s)
Visibility: 6 or more miles (10+ km)
Ceiling: ceiling and visibility are OK
Clouds: unknown
Weather: no significant weather observed at this time

Forecast for: EFRO (ROVANIEMI (CIV/M, FI)
Text: TAF EFRO 030535Z 0306/0406 35008KT CAVOK
Forecast period: 0600 UTC 03 February 2023 to 0600 UTC 04 February 2023
Forecast type: FROM: standard forecast or significant change
Winds: from the N (350 degrees) at 9 MPH (8 knots; 4.1 m/s)
Visibility: 6 or more miles (10+ km)
Ceiling: unknown
Clouds: missing
Weather: NSW  (no significant weather)
Text: PROB30 0321/0403 2000 BCFG BKN001
Forecast period: 2100 UTC 03 February 2023 to 0300 UTC 04 February 2023
Forecast type: PROBABLE: 30 percent likelihood of the following during this time
Visibility: 1.24 miles (2.00 km)
Ceiling: 100 feet AGL
Clouds: broken clouds at 100 feet AGL
Weather: BCFG  (patches of fog)

 AIRPORT MAP

 RUNWAY INFORMATION
Runway 03 Runway length 9849 ft Runway width 197 ft
Runway elevation 633 ft Runway displaced threshold 0 ft Runway heading 37
Runway 21 Runway length 9849 ft Runway width 197 ft
Runway elevation 609 ft Runway displaced threshold 0 ft Runway heading 217

 AIRPORT FREQUENCIES
Type APP Name APP Frequency 125.8 MHZ
Type ATIS Name ATIS Frequency 117.7 MHZ
Type GND Name GND Frequency 118.525 MHZ
Type PMSV Name PMSV METRO Frequency 125.1 MHZ
Type TWR Name TWR Frequency 118.7 MHZ

 AIRPORT NEAR NAVIGATION AIDS
Type NDB Name Papa-Alfa Frequency 377 KHZ
Type VOR-DME Name Rovani Frequency 117700 KHZ
Type NDB Name Toramo Frequency 416 KHZ